sensor_id;sensor_type;location;lat;lon;timestamp;pressure;altitude;pressure_sealevel;temperature;humidity
80853;BME280;70270;43.434;28.338;2023-12-20T00:02:19;100502.44;;;9.45;88.21
80853;BME280;70270;43.434;28.338;2023-12-20T00:05:04;100389.88;;;8.77;87.90
80853;BME280;70270;43.434;28.338;2023-12-20T00:07:49;100492.75;;;9.50;87.52
80853;BME280;70270;43.434;28.338;2023-12-20T00:10:33;100503.38;;;9.52;87.24
80853;BME280;70270;43.434;28.338;2023-12-20T00:13:18;100390.66;;;9.00;86.98
80853;BME280;70270;43.434;28.338;2023-12-20T00:16:02;100481.28;;;9.63;86.71
80853;BME280;70270;43.434;28.338;2023-12-20T00:18:47;100487.06;;;9.60;86.79
80853;BME280;70270;43.434;28.338;2023-12-20T00:21:31;100394.59;;;9.12;85.95
80853;BME280;70270;43.434;28.338;2023-12-20T00:24:16;100476.63;;;9.57;85.96
80853;BME280;70270;43.434;28.338;2023-12-20T00:27:00;100468.69;;;9.70;86.25
80853;BME280;70270;43.434;28.338;2023-12-20T00:29:45;100426.88;;;9.43;84.96
80853;BME280;70270;43.434;28.338;2023-12-20T00:32:35;100455.34;;;9.68;84.80
80853;BME280;70270;43.434;28.338;2023-12-20T00:35:19;100464.28;;;9.83;84.49
80853;BME280;70270;43.434;28.338;2023-12-20T00:38:04;100351.16;;;9.28;84.19
80853;BME280;70270;43.434;28.338;2023-12-20T00:40:49;100446.84;;;9.86;83.80
80853;BME280;70270;43.434;28.338;2023-12-20T00:43:34;100431.63;;;9.85;83.23
80853;BME280;70270;43.434;28.338;2023-12-20T00:46:18;100350.34;;;9.43;83.49
80853;BME280;70270;43.434;28.338;2023-12-20T00:49:03;100364.50;;;9.45;82.87
80853;BME280;70270;43.434;28.338;2023-12-20T00:51:48;100429.84;;;9.92;82.45
80853;BME280;70270;43.434;28.338;2023-12-20T00:54:34;100422.84;;;9.83;82.31
80853;BME280;70270;43.434;28.338;2023-12-20T00:57:18;100431.63;;;9.85;82.56
80853;BME280;70270;43.434;28.338;2023-12-20T01:00:03;100434.63;;;9.75;82.67
80853;BME280;70270;43.434;28.338;2023-12-20T01:02:48;100428.28;;;9.68;83.31
80853;BME280;70270;43.434;28.338;2023-12-20T01:05:34;100426.91;;;9.58;83.88
80853;BME280;70270;43.434;28.338;2023-12-20T01:08:18;100422.78;;;9.47;84.55
80853;BME280;70270;43.434;28.338;2023-12-20T01:11:06;100403.03;;;9.47;84.49
80853;BME280;70270;43.434;28.338;2023-12-20T01:13:50;100396.84;;;9.53;84.09
80853;BME280;70270;43.434;28.338;2023-12-20T01:16:35;100381.25;;;9.69;83.95
80853;BME280;70270;43.434;28.338;2023-12-20T01:19:19;100381.78;;;9.94;82.91
80853;BME280;70270;43.434;28.338;2023-12-20T01:22:04;100392.00;;;10.13;82.65
80853;BME280;70270;43.434;28.338;2023-12-20T01:24:48;100405.06;;;10.24;82.18
80853;BME280;70270;43.434;28.338;2023-12-20T01:27:33;100388.38;;;10.42;80.51
80853;BME280;70270;43.434;28.338;2023-12-20T01:30:17;100300.75;;;9.93;79.46
80853;BME280;70270;43.434;28.338;2023-12-20T01:33:02;100310.28;;;9.53;79.88
80853;BME280;70270;43.434;28.338;2023-12-20T01:35:47;100385.44;;;9.86;80.83
80853;BME280;70270;43.434;28.338;2023-12-20T01:38:32;100292.66;;;9.06;82.71
80853;BME280;70270;43.434;28.338;2023-12-20T01:41:16;100378.41;;;9.42;83.21
80853;BME280;70270;43.434;28.338;2023-12-20T01:44:01;100374.88;;;9.26;83.73
80853;BME280;70270;43.434;28.338;2023-12-20T01:46:46;100367.88;;;9.17;84.76
80853;BME280;70270;43.434;28.338;2023-12-20T01:49:31;100315.09;;;8.77;84.85
80853;BME280;70270;43.434;28.338;2023-12-20T01:52:16;100366.94;;;9.10;84.67
80853;BME280;70270;43.434;28.338;2023-12-20T01:55:01;100352.44;;;9.03;84.76
80853;BME280;70270;43.434;28.338;2023-12-20T01:57:48;100341.28;;;9.06;84.14
80853;BME280;70270;43.434;28.338;2023-12-20T02:00:33;100248.06;;;8.43;83.34
80853;BME280;70270;43.434;28.338;2023-12-20T02:03:18;100365.34;;;9.01;84.00
80853;BME280;70270;43.434;28.338;2023-12-20T02:06:05;100348.94;;;9.03;84.00
80853;BME280;70270;43.434;28.338;2023-12-20T02:08:50;100354.59;;;9.08;83.72
80853;BME280;70270;43.434;28.338;2023-12-20T02:11:35;100352.38;;;8.97;84.20
80853;BME280;70270;43.434;28.338;2023-12-20T02:14:20;100321.41;;;8.84;84.22
80853;BME280;70270;43.434;28.338;2023-12-20T02:17:05;100308.00;;;8.76;84.32
80853;BME280;70270;43.434;28.338;2023-12-20T02:19:49;100285.91;;;8.73;83.94
80853;BME280;70270;43.434;28.338;2023-12-20T02:22:34;100325.69;;;9.23;83.51
80853;BME280;70270;43.434;28.338;2023-12-20T02:25:18;100320.78;;;9.26;82.43
80853;BME280;70270;43.434;28.338;2023-12-20T02:28:03;100322.09;;;9.30;81.60
80853;BME280;70270;43.434;28.338;2023-12-20T02:30:49;100310.44;;;9.30;82.10
80853;BME280;70270;43.434;28.338;2023-12-20T02:33:33;100301.47;;;9.29;81.98
80853;BME280;70270;43.434;28.338;2023-12-20T02:36:18;100294.31;;;9.22;82.05
80853;BME280;70270;43.434;28.338;2023-12-20T02:39:02;100296.28;;;9.13;82.34
80853;BME280;70270;43.434;28.338;2023-12-20T02:41:48;100267.38;;;9.14;81.20
80853;BME280;70270;43.434;28.338;2023-12-20T02:44:32;100273.34;;;9.09;80.98
80853;BME280;70270;43.434;28.338;2023-12-20T02:47:17;100287.69;;;9.24;81.20
80853;BME280;70270;43.434;28.338;2023-12-20T02:50:01;100287.34;;;9.49;79.76
80853;BME280;70270;43.434;28.338;2023-12-20T02:52:46;100197.66;;;9.09;79.25
80853;BME280;70270;43.434;28.338;2023-12-20T02:55:30;100268.84;;;9.67;78.99
80853;BME280;70270;43.434;28.338;2023-12-20T02:58:15;100256.16;;;9.31;79.54
80853;BME280;70270;43.434;28.338;2023-12-20T03:00:59;100267.78;;;9.47;78.30
80853;BME280;70270;43.434;28.338;2023-12-20T03:03:43;100189.38;;;8.96;77.33
80853;BME280;70270;43.434;28.338;2023-12-20T03:06:28;100148.78;;;9.11;76.57
80853;BME280;70270;43.434;28.338;2023-12-20T03:09:12;100142.69;;;9.23;76.42
80853;BME280;70270;43.434;28.338;2023-12-20T03:11:58;100221.19;;;9.66;74.46
80853;BME280;70270;43.434;28.338;2023-12-20T03:14:43;100185.94;;;9.23;74.86
80853;BME280;70270;43.434;28.338;2023-12-20T03:17:28;100235.25;;;9.40;75.40
80853;BME280;70270;43.434;28.338;2023-12-20T03:20:12;100283.75;;;9.42;76.10
80853;BME280;70270;43.434;28.338;2023-12-20T03:22:57;100267.16;;;9.30;78.18
80853;BME280;70270;43.434;28.338;2023-12-20T03:25:41;100270.44;;;9.25;79.12
80853;BME280;70270;43.434;28.338;2023-12-20T03:28:27;100261.31;;;9.26;78.99
80853;BME280;70270;43.434;28.338;2023-12-20T03:31:11;100273.25;;;9.17;79.58
80853;BME280;70270;43.434;28.338;2023-12-20T03:33:56;100249.75;;;9.03;80.42
80853;BME280;70270;43.434;28.338;2023-12-20T03:36:40;100236.72;;;8.92;80.42
80853;BME280;70270;43.434;28.338;2023-12-20T03:39:25;100251.25;;;8.91;81.81
80853;BME280;70270;43.434;28.338;2023-12-20T03:42:09;100240.53;;;8.83;82.16
80853;BME280;70270;43.434;28.338;2023-12-20T03:44:54;100243.81;;;8.93;81.63
80853;BME280;70270;43.434;28.338;2023-12-20T03:47:38;100241.38;;;8.98;81.19
80853;BME280;70270;43.434;28.338;2023-12-20T03:50:24;100243.03;;;8.99;81.00
80853;BME280;70270;43.434;28.338;2023-12-20T03:53:08;100224.88;;;8.93;80.65
80853;BME280;70270;43.434;28.338;2023-12-20T03:55:52;100234.84;;;8.92;81.21
80853;BME280;70270;43.434;28.338;2023-12-20T03:58:37;100247.44;;;9.00;81.14
80853;BME280;70270;43.434;28.338;2023-12-20T04:01:21;100171.91;;;8.48;82.12
80853;BME280;70270;43.434;28.338;2023-12-20T04:04:06;100232.44;;;8.83;82.62
80853;BME280;70270;43.434;28.338;2023-12-20T04:06:50;100231.13;;;8.79;82.53
80853;BME280;70270;43.434;28.338;2023-12-20T04:09:35;100122.97;;;7.99;83.55
80853;BME280;70270;43.434;28.338;2023-12-20T04:12:19;100118.22;;;8.01;84.41
80853;BME280;70270;43.434;28.338;2023-12-20T04:15:04;100233.00;;;8.64;85.46
80853;BME280;70270;43.434;28.338;2023-12-20T04:17:53;100224.25;;;8.62;86.56
80853;BME280;70270;43.434;28.338;2023-12-20T04:20:37;100135.53;;;8.07;87.06
80853;BME280;70270;43.434;28.338;2023-12-20T04:23:22;100170.22;;;8.32;87.47
80853;BME280;70270;43.434;28.338;2023-12-20T04:26:06;100224.88;;;8.64;87.37
80853;BME280;70270;43.434;28.338;2023-12-20T04:28:51;100191.66;;;8.49;87.21
80853;BME280;70270;43.434;28.338;2023-12-20T04:31:36;100209.59;;;8.71;87.86
80853;BME280;70270;43.434;28.338;2023-12-20T04:34:20;100197.88;;;8.78;87.33
80853;BME280;70270;43.434;28.338;2023-12-20T04:37:05;100213.78;;;8.88;87.15
80853;BME280;70270;43.434;28.338;2023-12-20T04:39:49;100193.69;;;8.76;86.80
80853;BME280;70270;43.434;28.338;2023-12-20T04:42:34;100212.28;;;9.00;85.95
80853;BME280;70270;43.434;28.338;2023-12-20T04:45:18;100207.16;;;9.05;85.58
80853;BME280;70270;43.434;28.338;2023-12-20T04:48:04;100206.59;;;8.95;86.45
80853;BME280;70270;43.434;28.338;2023-12-20T04:50:48;100206.72;;;9.02;86.30
80853;BME280;70270;43.434;28.338;2023-12-20T04:53:33;100207.28;;;8.97;86.17
80853;BME280;70270;43.434;28.338;2023-12-20T04:56:17;100111.00;;;8.45;85.32
80853;BME280;70270;43.434;28.338;2023-12-20T04:59:02;100129.88;;;8.75;84.79
80853;BME280;70270;43.434;28.338;2023-12-20T05:01:46;100204.81;;;9.53;83.40
80853;BME280;70270;43.434;28.338;2023-12-20T05:04:31;100202.03;;;9.46;83.07
80853;BME280;70270;43.434;28.338;2023-12-20T05:07:15;100204.03;;;9.37;83.58
80853;BME280;70270;43.434;28.338;2023-12-20T05:10:00;100167.69;;;9.25;83.59
80853;BME280;70270;43.434;28.338;2023-12-20T05:12:44;100109.19;;;8.67;84.54
80853;BME280;70270;43.434;28.338;2023-12-20T05:15:29;100200.09;;;9.04;84.60
80853;BME280;70270;43.434;28.338;2023-12-20T05:18:14;100192.34;;;9.01;84.98
80853;BME280;70270;43.434;28.338;2023-12-20T05:20:58;100117.81;;;8.41;85.20
80853;BME280;70270;43.434;28.338;2023-12-20T05:23:43;100102.88;;;8.16;86.62
80853;BME280;70270;43.434;28.338;2023-12-20T05:26:27;100186.97;;;8.72;86.54
80853;BME280;70270;43.434;28.338;2023-12-20T05:29:13;100181.03;;;8.62;87.30
80853;BME280;70270;43.434;28.338;2023-12-20T05:31:58;100181.97;;;8.69;87.50
80853;BME280;70270;43.434;28.338;2023-12-20T05:34:42;100200.19;;;8.67;87.13
80853;BME280;70270;43.434;28.338;2023-12-20T05:37:27;100183.06;;;8.60;86.82
80853;BME280;70270;43.434;28.338;2023-12-20T05:40:11;100184.66;;;8.69;86.11
80853;BME280;70270;43.434;28.338;2023-12-20T05:42:56;100186.06;;;8.65;86.47
80853;BME280;70270;43.434;28.338;2023-12-20T05:45:40;100191.84;;;8.62;85.93
80853;BME280;70270;43.434;28.338;2023-12-20T05:48:26;100180.28;;;8.53;86.92
80853;BME280;70270;43.434;28.338;2023-12-20T05:51:12;100167.81;;;8.37;87.56
80853;BME280;70270;43.434;28.338;2023-12-20T05:53:57;100180.16;;;8.46;87.88
80853;BME280;70270;43.434;28.338;2023-12-20T05:56:42;100165.75;;;8.39;87.75
80853;BME280;70270;43.434;28.338;2023-12-20T05:59:26;100079.88;;;7.91;87.58
80853;BME280;70270;43.434;28.338;2023-12-20T06:02:11;100182.78;;;8.55;88.24
80853;BME280;70270;43.434;28.338;2023-12-20T06:04:55;100177.47;;;8.46;87.65
80853;BME280;70270;43.434;28.338;2023-12-20T06:07:40;100156.72;;;8.47;87.46
80853;BME280;70270;43.434;28.338;2023-12-20T06:10:25;100139.13;;;8.36;86.80
80853;BME280;70270;43.434;28.338;2023-12-20T06:13:10;100170.22;;;8.62;86.76
80853;BME280;70270;43.434;28.338;2023-12-20T06:15:55;100184.63;;;8.83;86.37
80853;BME280;70270;43.434;28.338;2023-12-20T06:18:40;100185.19;;;8.79;86.23
80853;BME280;70270;43.434;28.338;2023-12-20T06:21:25;100189.88;;;8.85;85.96
80853;BME280;70270;43.434;28.338;2023-12-20T06:24:09;100204.09;;;8.79;86.08
80853;BME280;70270;43.434;28.338;2023-12-20T06:26:54;100097.00;;;8.27;86.10
80853;BME280;70270;43.434;28.338;2023-12-20T06:29:42;100089.00;;;8.19;86.74
80853;BME280;70270;43.434;28.338;2023-12-20T06:32:28;100190.78;;;8.92;86.15
80853;BME280;70270;43.434;28.338;2023-12-20T06:35:13;100190.16;;;8.90;86.57
80853;BME280;70270;43.434;28.338;2023-12-20T06:37:58;100117.78;;;8.56;86.18
80853;BME280;70270;43.434;28.338;2023-12-20T06:40:42;100094.44;;;8.49;85.71
80853;BME280;70270;43.434;28.338;2023-12-20T06:43:27;100178.41;;;9.19;86.06
80853;BME280;70270;43.434;28.338;2023-12-20T06:46:12;100100.53;;;8.86;85.04
80853;BME280;70270;43.434;28.338;2023-12-20T06:48:57;100175.75;;;9.40;84.70
80853;BME280;70270;43.434;28.338;2023-12-20T06:51:42;100169.13;;;9.43;84.17
80853;BME280;70270;43.434;28.338;2023-12-20T06:54:26;100112.97;;;9.02;84.47
80853;BME280;70270;43.434;28.338;2023-12-20T06:57:10;100175.34;;;9.43;84.40
80853;BME280;70270;43.434;28.338;2023-12-20T06:59:55;100143.56;;;9.45;83.88
80853;BME280;70270;43.434;28.338;2023-12-20T07:02:39;100169.88;;;9.79;83.25
80853;BME280;70270;43.434;28.338;2023-12-20T07:05:24;100060.38;;;9.05;83.20
80853;BME280;70270;43.434;28.338;2023-12-20T07:08:08;100150.97;;;9.58;83.78
80853;BME280;70270;43.434;28.338;2023-12-20T07:10:53;100143.94;;;9.63;82.58
80853;BME280;70270;43.434;28.338;2023-12-20T07:13:37;100131.63;;;9.61;83.21
80853;BME280;70270;43.434;28.338;2023-12-20T07:16:22;100150.19;;;9.64;83.53
80853;BME280;70270;43.434;28.338;2023-12-20T07:19:07;100152.75;;;9.72;83.55
80853;BME280;70270;43.434;28.338;2023-12-20T07:21:51;100150.25;;;9.70;83.14
80853;BME280;70270;43.434;28.338;2023-12-20T07:24:36;100148.88;;;9.81;82.58
80853;BME280;70270;43.434;28.338;2023-12-20T07:27:20;100139.75;;;9.82;82.37
80853;BME280;70270;43.434;28.338;2023-12-20T07:30:06;100142.06;;;9.85;82.71
80853;BME280;70270;43.434;28.338;2023-12-20T07:32:50;100128.00;;;9.75;82.87
80853;BME280;70270;43.434;28.338;2023-12-20T07:35:36;100042.94;;;9.28;82.28
80853;BME280;70270;43.434;28.338;2023-12-20T07:38:21;100101.94;;;9.67;83.16
80853;BME280;70270;43.434;28.338;2023-12-20T07:41:06;100103.97;;;9.59;83.56
80853;BME280;70270;43.434;28.338;2023-12-20T07:43:53;100128.03;;;10.03;82.88
80853;BME280;70270;43.434;28.338;2023-12-20T07:46:38;99902.59;;;8.78;81.71
80853;BME280;70270;43.434;28.338;2023-12-20T07:49:22;100128.06;;;10.30;81.95
80853;BME280;70270;43.434;28.338;2023-12-20T07:52:07;100142.59;;;10.64;79.66
80853;BME280;70270;43.434;28.338;2023-12-20T07:54:52;100120.41;;;10.47;79.73
80853;BME280;70270;43.434;28.338;2023-12-20T07:57:36;100138.47;;;10.33;79.21
80853;BME280;70270;43.434;28.338;2023-12-20T08:00:21;100029.66;;;9.89;79.71
80853;BME280;70270;43.434;28.338;2023-12-20T08:03:06;100012.47;;;9.69;79.98
80853;BME280;70270;43.434;28.338;2023-12-20T08:05:51;100125.72;;;10.27;80.25
80853;BME280;70270;43.434;28.338;2023-12-20T08:08:35;100112.16;;;10.21;80.33
80853;BME280;70270;43.434;28.338;2023-12-20T08:11:20;100026.53;;;10.20;80.19
80853;BME280;70270;43.434;28.338;2023-12-20T08:14:05;100110.91;;;10.58;79.37
80853;BME280;70270;43.434;28.338;2023-12-20T08:16:50;100106.09;;;10.60;79.70
80853;BME280;70270;43.434;28.338;2023-12-20T08:19:34;100112.50;;;10.46;78.53
80853;BME280;70270;43.434;28.338;2023-12-20T08:22:19;100069.50;;;10.29;78.90
80853;BME280;70270;43.434;28.338;2023-12-20T08:25:04;100092.28;;;10.42;79.97
80853;BME280;70270;43.434;28.338;2023-12-20T08:27:48;100078.81;;;10.20;80.43
80853;BME280;70270;43.434;28.338;2023-12-20T08:30:33;100102.09;;;10.43;79.57
80853;BME280;70270;43.434;28.338;2023-12-20T08:33:17;100089.34;;;10.43;79.28
80853;BME280;70270;43.434;28.338;2023-12-20T08:36:02;99983.16;;;9.79;79.79
80853;BME280;70270;43.434;28.338;2023-12-20T08:38:49;100017.25;;;10.08;77.95
80853;BME280;70270;43.434;28.338;2023-12-20T08:41:35;100081.78;;;10.73;76.71
80853;BME280;70270;43.434;28.338;2023-12-20T08:44:19;100077.75;;;10.56;76.73
80853;BME280;70270;43.434;28.338;2023-12-20T08:47:05;100048.41;;;10.66;75.58
80853;BME280;70270;43.434;28.338;2023-12-20T08:49:49;100065.88;;;10.63;76.75
80853;BME280;70270;43.434;28.338;2023-12-20T08:52:34;99964.50;;;10.31;75.80
80853;BME280;70270;43.434;28.338;2023-12-20T08:55:19;100044.09;;;10.85;73.81
80853;BME280;70270;43.434;28.338;2023-12-20T08:58:04;100042.03;;;10.93;74.72
80853;BME280;70270;43.434;28.338;2023-12-20T09:00:51;100017.16;;;10.70;75.02
80853;BME280;70270;43.434;28.338;2023-12-20T09:03:35;100014.28;;;10.91;74.39
80853;BME280;70270;43.434;28.338;2023-12-20T09:06:20;99930.19;;;10.52;74.76
80853;BME280;70270;43.434;28.338;2023-12-20T09:09:04;99990.34;;;11.14;73.91
80853;BME280;70270;43.434;28.338;2023-12-20T09:11:49;100008.88;;;11.04;75.28
80853;BME280;70270;43.434;28.338;2023-12-20T09:14:35;100005.97;;;11.25;74.79
80853;BME280;70270;43.434;28.338;2023-12-20T09:17:20;99998.88;;;11.05;75.14
80853;BME280;70270;43.434;28.338;2023-12-20T09:20:07;99993.44;;;11.11;75.56
80853;BME280;70270;43.434;28.338;2023-12-20T09:22:52;99972.59;;;11.18;75.37
80853;BME280;70270;43.434;28.338;2023-12-20T09:25:36;99961.13;;;11.16;75.71
80853;BME280;70270;43.434;28.338;2023-12-20T09:28:21;99973.84;;;11.09;76.40
80853;BME280;70270;43.434;28.338;2023-12-20T09:31:06;99968.84;;;11.06;76.62
80853;BME280;70270;43.434;28.338;2023-12-20T09:33:50;99970.50;;;11.20;76.48
80853;BME280;70270;43.434;28.338;2023-12-20T09:36:35;99967.34;;;11.56;75.89
80853;BME280;70270;43.434;28.338;2023-12-20T09:39:21;99960.63;;;11.92;73.75
80853;BME280;70270;43.434;28.338;2023-12-20T09:42:06;99967.00;;;12.17;72.86
80853;BME280;70270;43.434;28.338;2023-12-20T09:44:51;99938.97;;;12.30;71.28
80853;BME280;70270;43.434;28.338;2023-12-20T09:47:36;99861.47;;;11.69;71.69
80853;BME280;70270;43.434;28.338;2023-12-20T09:50:21;99939.41;;;12.27;71.76
80853;BME280;70270;43.434;28.338;2023-12-20T09:53:08;99949.88;;;12.16;69.71
80853;BME280;70270;43.434;28.338;2023-12-20T09:55:54;99933.56;;;12.16;70.10
80853;BME280;70270;43.434;28.338;2023-12-20T09:58:38;99924.78;;;12.21;70.83
80853;BME280;70270;43.434;28.338;2023-12-20T10:01:27;99937.44;;;11.89;71.25
80853;BME280;70270;43.434;28.338;2023-12-20T10:04:13;99831.47;;;11.58;70.66
80853;BME280;70270;43.434;28.338;2023-12-20T10:07:02;99916.38;;;12.29;69.65
80853;BME280;70270;43.434;28.338;2023-12-20T10:09:54;99907.78;;;12.39;69.47
80853;BME280;70270;43.434;28.338;2023-12-20T10:12:39;99903.06;;;12.59;69.09
80853;BME280;70270;43.434;28.338;2023-12-20T10:15:23;99901.72;;;12.37;68.88
80853;BME280;70270;43.434;28.338;2023-12-20T10:18:08;99907.34;;;12.42;68.71
80853;BME280;70270;43.434;28.338;2023-12-20T10:20:53;99908.88;;;12.25;69.06
80853;BME280;70270;43.434;28.338;2023-12-20T10:23:37;99895.84;;;12.40;69.13
80853;BME280;70270;43.434;28.338;2023-12-20T10:26:25;99880.97;;;12.04;68.41
80853;BME280;70270;43.434;28.338;2023-12-20T10:29:10;99801.06;;;11.43;68.22
80853;BME280;70270;43.434;28.338;2023-12-20T10:31:55;99878.50;;;11.96;69.34
80853;BME280;70270;43.434;28.338;2023-12-20T10:34:41;99797.91;;;11.46;69.62
80853;BME280;70270;43.434;28.338;2023-12-20T10:37:26;99878.09;;;11.99;69.47
80853;BME280;70270;43.434;28.338;2023-12-20T10:40:11;99873.88;;;12.10;67.41
80853;BME280;70270;43.434;28.338;2023-12-20T10:42:58;99865.00;;;12.28;67.57
80853;BME280;70270;43.434;28.338;2023-12-20T10:45:43;99847.44;;;12.30;67.12
80853;BME280;70270;43.434;28.338;2023-12-20T10:48:29;99873.50;;;12.38;66.88
80853;BME280;70270;43.434;28.338;2023-12-20T10:51:17;99837.91;;;12.14;66.75
80853;BME280;70270;43.434;28.338;2023-12-20T10:54:02;99834.28;;;11.89;66.99
80853;BME280;70270;43.434;28.338;2023-12-20T10:56:50;99859.09;;;11.99;66.70
80853;BME280;70270;43.434;28.338;2023-12-20T10:59:37;99855.06;;;12.08;68.21
80853;BME280;70270;43.434;28.338;2023-12-20T11:02:22;99824.03;;;12.29;67.60
80853;BME280;70270;43.434;28.338;2023-12-20T11:05:25;99825.09;;;11.84;67.42
80853;BME280;70270;43.434;28.338;2023-12-20T11:08:22;99802.22;;;11.66;68.25
80853;BME280;70270;43.434;28.338;2023-12-20T11:11:23;99808.66;;;11.72;69.38
80853;BME280;70270;43.434;28.338;2023-12-20T11:15:13;99815.47;;;11.94;67.95
80853;BME280;70270;43.434;28.338;2023-12-20T11:17:40;99814.66;;;11.87;68.27
80853;BME280;70270;43.434;28.338;2023-12-20T11:20:37;99741.78;;;11.40;66.70
80853;BME280;70270;43.434;28.338;2023-12-20T11:23:22;99816.16;;;11.83;68.40
80853;BME280;70270;43.434;28.338;2023-12-20T11:26:07;99732.59;;;11.47;67.26
80853;BME280;70270;43.434;28.338;2023-12-20T11:28:51;99817.41;;;12.18;65.51
80853;BME280;70270;43.434;28.338;2023-12-20T11:31:40;99820.97;;;12.19;66.54
80853;BME280;70270;43.434;28.338;2023-12-20T11:34:27;99805.38;;;12.01;65.83
80853;BME280;70270;43.434;28.338;2023-12-20T11:37:13;99801.34;;;11.79;66.71
80853;BME280;70270;43.434;28.338;2023-12-20T11:40:08;99798.78;;;11.91;68.22
80853;BME280;70270;43.434;28.338;2023-12-20T11:42:55;99792.56;;;12.15;67.37
80853;BME280;70270;43.434;28.338;2023-12-20T11:45:49;99762.38;;;11.98;66.37
80853;BME280;70270;43.434;28.338;2023-12-20T11:48:38;99784.63;;;12.13;65.15
80853;BME280;70270;43.434;28.338;2023-12-20T11:51:24;99684.91;;;12.20;64.61
80853;BME280;70270;43.434;28.338;2023-12-20T11:54:08;99757.16;;;12.53;65.37
80853;BME280;70270;43.434;28.338;2023-12-20T11:56:53;99647.28;;;11.68;65.43
80853;BME280;70270;43.434;28.338;2023-12-20T11:59:37;99763.63;;;12.52;64.54
80853;BME280;70270;43.434;28.338;2023-12-20T12:02:21;99748.81;;;12.73;63.69
80853;BME280;70270;43.434;28.338;2023-12-20T12:05:08;99755.19;;;12.60;63.43
80853;BME280;70270;43.434;28.338;2023-12-20T12:07:52;99741.47;;;12.55;63.11
80853;BME280;70270;43.434;28.338;2023-12-20T12:10:37;99738.19;;;12.46;63.84
80853;BME280;70270;43.434;28.338;2023-12-20T12:13:22;99762.84;;;12.51;62.83
80853;BME280;70270;43.434;28.338;2023-12-20T12:16:07;99744.41;;;12.53;62.76
80853;BME280;70270;43.434;28.338;2023-12-20T12:18:58;99725.09;;;12.61;62.78
80853;BME280;70270;43.434;28.338;2023-12-20T12:21:43;99722.22;;;13.18;62.42
80853;BME280;70270;43.434;28.338;2023-12-20T12:24:27;99714.28;;;13.64;60.06
80853;BME280;70270;43.434;28.338;2023-12-20T12:27:13;99724.56;;;13.14;61.17
80853;BME280;70270;43.434;28.338;2023-12-20T12:30:05;99710.63;;;12.86;62.52
80853;BME280;70270;43.434;28.338;2023-12-20T12:32:55;99719.16;;;12.89;62.06
80853;BME280;70270;43.434;28.338;2023-12-20T12:35:40;99705.94;;;12.93;62.02
80853;BME280;70270;43.434;28.338;2023-12-20T12:38:24;99710.09;;;12.77;63.21
80853;BME280;70270;43.434;28.338;2023-12-20T12:41:08;99685.56;;;12.84;62.67
80853;BME280;70270;43.434;28.338;2023-12-20T12:43:54;99691.50;;;12.74;62.71
80853;BME280;70270;43.434;28.338;2023-12-20T12:46:38;99670.34;;;12.58;62.57
80853;BME280;70270;43.434;28.338;2023-12-20T12:49:23;99701.69;;;12.60;63.31
80853;BME280;70270;43.434;28.338;2023-12-20T12:52:07;99708.09;;;12.23;63.37
80853;BME280;70270;43.434;28.338;2023-12-20T12:54:53;99620.53;;;11.78;64.67
80853;BME280;70270;43.434;28.338;2023-12-20T12:57:38;99633.00;;;11.86;65.46
80853;BME280;70270;43.434;28.338;2023-12-20T13:00:22;99699.81;;;11.87;65.91
80853;BME280;70270;43.434;28.338;2023-12-20T13:03:07;99688.69;;;12.19;64.35
80853;BME280;70270;43.434;28.338;2023-12-20T13:05:54;99688.81;;;12.06;64.21
80853;BME280;70270;43.434;28.338;2023-12-20T13:08:39;99681.97;;;11.66;66.59
80853;BME280;70270;43.434;28.338;2023-12-20T13:11:23;99669.25;;;11.60;65.16
80853;BME280;70270;43.434;28.338;2023-12-20T13:14:09;99678.50;;;11.08;65.51
80853;BME280;70270;43.434;28.338;2023-12-20T13:16:58;99676.91;;;10.94;67.24
80853;BME280;70270;43.434;28.338;2023-12-20T13:19:42;99581.41;;;10.27;69.04
80853;BME280;70270;43.434;28.338;2023-12-20T13:22:27;99658.66;;;10.63;70.28
80853;BME280;70270;43.434;28.338;2023-12-20T13:25:12;99631.84;;;10.35;71.32
80853;BME280;70270;43.434;28.338;2023-12-20T13:27:56;99655.28;;;10.67;71.15
80853;BME280;70270;43.434;28.338;2023-12-20T13:30:41;99659.06;;;10.66;70.86
80853;BME280;70270;43.434;28.338;2023-12-20T13:33:27;99623.44;;;11.07;68.66
80853;BME280;70270;43.434;28.338;2023-12-20T13:36:12;99645.97;;;11.46;68.11
80853;BME280;70270;43.434;28.338;2023-12-20T13:38:57;99559.50;;;11.31;67.54
80853;BME280;70270;43.434;28.338;2023-12-20T13:41:41;99640.03;;;11.93;66.82
80853;BME280;70270;43.434;28.338;2023-12-20T13:44:26;99629.78;;;11.95;65.93
80853;BME280;70270;43.434;28.338;2023-12-20T13:47:10;99625.69;;;11.48;68.18
80853;BME280;70270;43.434;28.338;2023-12-20T13:49:55;99641.63;;;11.38;67.84
80853;BME280;70270;43.434;28.338;2023-12-20T13:52:39;99600.84;;;10.82;69.29
80853;BME280;70270;43.434;28.338;2023-12-20T13:55:24;99654.63;;;10.85;70.59
80853;BME280;70270;43.434;28.338;2023-12-20T13:58:09;99558.34;;;10.18;71.67
80853;BME280;70270;43.434;28.338;2023-12-20T14:00:56;99645.28;;;10.68;71.84
80853;BME280;70270;43.434;28.338;2023-12-20T14:03:41;99647.84;;;10.37;73.71
80853;BME280;70270;43.434;28.338;2023-12-20T14:06:25;99614.56;;;10.29;73.77
80853;BME280;70270;43.434;28.338;2023-12-20T14:09:09;99615.78;;;10.33;73.74
80853;BME280;70270;43.434;28.338;2023-12-20T14:11:56;99611.63;;;10.11;75.38
80853;BME280;70270;43.434;28.338;2023-12-20T14:14:41;99637.91;;;10.17;74.67
80853;BME280;70270;43.434;28.338;2023-12-20T14:17:26;99578.13;;;9.93;73.90
80853;BME280;70270;43.434;28.338;2023-12-20T14:20:10;99640.78;;;10.36;74.71
80853;BME280;70270;43.434;28.338;2023-12-20T14:22:57;99637.47;;;10.33;74.76
80853;BME280;70270;43.434;28.338;2023-12-20T14:25:42;99641.41;;;10.11;74.90